Time;durP1;ratioP1;P1;durP2;ratioP2;P2;SDS_P1;SDS_P2;PMS_P1;PMS_P2;Temp;Humidity;BMP_temperature;BMP_pressure;BME280_temperature;BME280_humidity;BME280_pressure;Samples;Min_cycle;Max_cycle;Signal;HPM_P1;HPM_P2
2023/01/02 00:01:51;;;;;;;13.43;4.55;;;9.70;99.90;;;;;;5051369;28;20052;-81
2023/01/02 00:04:17;;;;;;;13.98;4.40;;;9.60;99.90;;;;;;5019184;28;20123;-79
2023/01/02 00:06:42;;;;;;;13.90;4.47;;;9.70;99.90;;;;;;5054564;28;20131;-81
2023/01/02 00:09:08;;;;;;;10.63;4.63;;;9.30;99.90;;;;;;5038275;28;20044;-80
2023/01/02 00:11:53;;;;;;;12.98;4.80;;;9.80;99.90;;;;;;5048198;28;20413;-82
2023/01/02 00:14:18;;;;;;;11.93;4.63;;;9.40;99.90;;;;;;5065738;28;20049;-81
2023/01/02 00:16:44;;;;;;;12.15;4.97;;;9.50;99.90;;;;;;5047243;28;20136;-81
2023/01/02 00:19:10;;;;;;;11.88;5.20;;;9.80;99.90;;;;;;5064906;28;20479;-79
2023/01/02 00:21:35;;;;;;;12.88;5.93;;;9.30;99.90;;;;;;5032302;28;20502;-80
2023/01/02 00:24:01;;;;;;;14.13;5.97;;;9.70;99.90;;;;;;5015065;28;20059;-79
2023/01/02 00:26:28;;;;;;;10.93;5.60;;;9.60;99.90;;;;;;5056923;28;20056;-81
2023/01/02 00:28:54;;;;;;;12.38;6.30;;;9.80;99.90;;;;;;5032072;28;20028;-79
2023/01/02 00:31:20;;;;;;;9.93;6.28;;;9.90;99.90;;;;;;5051224;28;20110;-79
2023/01/02 00:33:45;;;;;;;12.00;6.45;;;9.60;99.90;;;;;;5050254;28;20356;-79
2023/01/02 00:36:12;;;;;;;17.27;6.60;;;9.50;99.90;;;;;;5043593;28;20037;-79
2023/01/02 00:38:39;;;;;;;11.10;6.53;;;9.90;99.90;;;;;;5031276;28;20039;-81
2023/01/02 00:41:05;;;;;;;14.57;7.30;;;9.50;99.90;;;;;;5034725;28;20400;-79
2023/01/02 00:43:31;;;;;;;11.60;6.57;;;9.50;99.90;;;;;;5032349;28;20056;-80
2023/01/02 00:45:57;;;;;;;12.43;7.07;;;9.80;99.90;;;;;;5015150;28;20404;-83
2023/01/02 00:48:25;;;;;;;18.05;7.97;;;10.00;99.90;;;;;;5032376;28;20052;-81
2023/01/02 00:50:51;;;;;;;15.63;7.53;;;10.10;99.90;;;;;;5018911;28;20049;-79
2023/01/02 00:53:17;;;;;;;11.90;7.40;;;9.80;99.90;;;;;;5029630;28;20045;-83
2023/01/02 00:55:44;;;;;;;13.80;7.60;;;9.70;99.90;;;;;;5008425;28;20049;-81
2023/01/02 00:58:10;;;;;;;11.45;6.85;;;9.90;99.90;;;;;;5033302;28;20132;-79
2023/01/02 01:00:36;;;;;;;12.52;7.47;;;9.90;99.90;;;;;;4997366;28;20123;-80
2023/01/02 01:03:02;;;;;;;14.52;7.55;;;10.20;99.90;;;;;;5031333;28;20041;-82
2023/01/02 01:05:28;;;;;;;12.63;7.22;;;9.90;99.90;;;;;;5012110;28;20048;-82
2023/01/02 01:07:55;;;;;;;10.13;6.50;;;9.80;99.90;;;;;;5007836;28;20120;-80
2023/01/02 01:10:21;;;;;;;11.48;6.75;;;10.10;99.90;;;;;;5039182;28;20429;-80
2023/01/02 01:12:47;;;;;;;8.27;6.00;;;10.30;99.90;;;;;;5019937;28;20819;-80
2023/01/02 01:15:13;;;;;;;10.75;6.68;;;9.90;99.90;;;;;;5042478;28;20037;-83
2023/01/02 01:17:38;;;;;;;8.57;5.55;;;10.40;99.90;;;;;;4998470;28;20041;-79
2023/01/02 01:20:05;;;;;;;9.02;5.38;;;10.30;99.90;;;;;;5028482;28;20041;-79
2023/01/02 01:22:31;;;;;;;9.57;5.80;;;10.30;99.90;;;;;;5013566;28;20052;-80
2023/01/02 01:24:57;;;;;;;10.10;5.53;;;9.90;99.90;;;;;;4999705;28;20045;-82
2023/01/02 01:27:23;;;;;;;8.43;5.82;;;10.20;99.90;;;;;;4994145;28;20163;-80
2023/01/02 01:29:48;;;;;;;8.98;5.90;;;10.10;99.90;;;;;;5001430;28;20041;-82
2023/01/02 01:32:14;;;;;;;8.20;5.78;;;10.00;99.90;;;;;;4996901;28;20191;-79
2023/01/02 01:34:40;;;;;;;9.20;5.72;;;10.50;99.90;;;;;;4999167;28;20417;-77
2023/01/02 01:37:05;;;;;;;9.02;6.00;;;10.20;99.90;;;;;;5015981;28;20049;-81
2023/01/02 01:39:31;;;;;;;10.98;7.00;;;10.30;99.90;;;;;;5002905;28;20037;-79
2023/01/02 01:42:16;;;;;;;12.13;7.22;;;10.00;99.90;;;;;;5034548;28;20380;-82
2023/01/02 01:44:44;;;;;;;12.57;7.32;;;10.10;99.90;;;;;;5000868;28;20037;-82
2023/01/02 01:47:36;;;;;;;14.02;7.13;;;10.10;99.90;;;;;;5005054;28;20128;-79
2023/01/02 01:50:02;;;;;;;13.43;8.43;;;10.10;99.90;;;;;;5003301;28;20045;-82
2023/01/02 01:52:30;;;;;;;12.27;7.70;;;10.10;99.90;;;;;;5017188;28;20083;-82
2023/01/02 01:55:03;;;;;;;15.43;7.72;;;10.20;99.90;;;;;;5040609;28;20098;-79
2023/01/02 01:57:35;;;;;;;16.27;8.68;;;10.60;99.90;;;;;;5044720;28;20071;-80
2023/01/02 02:00:01;;;;;;;17.42;8.88;;;10.50;99.90;;;;;;5070044;28;20066;-82
2023/01/02 02:02:28;;;;;;;14.02;9.23;;;10.10;99.90;;;;;;5020162;28;20132;-78
2023/01/02 02:04:57;;;;;;;15.43;9.00;;;10.20;99.90;;;;;;5036435;28;20041;-81
2023/01/02 02:07:24;;;;;;;16.15;9.15;;;10.60;99.90;;;;;;5022718;28;20103;-82
2023/01/02 02:09:55;;;;;;;15.57;9.45;;;10.50;99.90;;;;;;5040767;28;20352;-81
2023/01/02 02:12:21;;;;;;;14.45;9.25;;;10.30;99.90;;;;;;5050037;28;20057;-79
2023/01/02 02:14:47;;;;;;;16.65;9.88;;;10.50;99.90;;;;;;5020699;28;20039;-81
2023/01/02 02:17:22;;;;;;;19.02;10.25;;;10.70;99.90;;;;;;5036018;28;20403;-79
2023/01/02 02:20:09;;;;;;;15.60;9.80;;;10.60;99.90;;;;;;5035003;28;20045;-79
2023/01/02 02:23:01;;;;;;;18.92;9.20;;;10.70;99.90;;;;;;5037521;28;20111;-82
2023/01/02 02:25:54;;;;;;;17.27;9.57;;;10.80;99.90;;;;;;5048301;28;20082;-78
2023/01/02 02:28:42;;;;;;;15.68;9.52;;;10.30;99.90;;;;;;5067861;28;20049;-79
2023/01/02 02:31:46;;;;;;;15.70;9.50;;;10.40;99.90;;;;;;5038806;28;20454;-82
2023/01/02 02:34:46;;;;;;;14.40;8.85;;;10.80;99.90;;;;;;5022851;28;20037;-79
2023/01/02 02:37:19;;;;;;;16.63;9.50;;;10.60;99.90;;;;;;4991413;28;20082;-80
2023/01/02 02:40:02;;;;;;;13.57;8.90;;;10.80;99.90;;;;;;4974845;28;20399;-79
2023/01/02 02:42:34;;;;;;;15.27;9.10;;;10.50;99.90;;;;;;4984423;28;20086;-79
2023/01/02 02:45:08;;;;;;;14.82;9.57;;;10.80;99.90;;;;;;4987898;28;20027;-78
2023/01/02 02:47:48;;;;;;;16.15;9.73;;;10.40;99.90;;;;;;5001830;28;20064;-79
2023/01/02 02:50:31;;;;;;;13.38;9.13;;;10.80;99.90;;;;;;4970483;28;20210;-79
2023/01/02 02:53:11;;;;;;;16.02;10.20;;;10.40;99.90;;;;;;4969820;28;20089;-81
2023/01/02 02:55:44;;;;;;;15.85;10.63;;;10.90;99.90;;;;;;4958389;28;20146;-81
2023/01/02 02:58:13;;;;;;;17.20;11.13;;;10.40;99.90;;;;;;4988943;28;20574;-78
2023/01/02 03:00:39;;;;;;;17.60;10.80;;;10.50;99.90;;;;;;4985328;28;20470;-79
2023/01/02 03:03:16;;;;;;;18.98;11.20;;;10.80;99.90;;;;;;4985697;28;20169;-78
2023/01/02 03:05:48;;;;;;;16.90;11.05;;;10.80;99.90;;;;;;4970735;28;20073;-83
2023/01/02 03:08:27;;;;;;;17.65;11.07;;;10.50;99.90;;;;;;4998331;28;20052;-79
2023/01/02 03:11:02;;;;;;;19.90;10.85;;;10.90;99.90;;;;;;4984860;28;20050;-82
2023/01/02 03:13:38;;;;;;;18.13;10.73;;;10.70;99.90;;;;;;4994403;28;20053;-81
2023/01/02 03:16:19;;;;;;;22.58;11.85;;;10.60;99.90;;;;;;5025678;28;20080;-80
2023/01/02 03:19:07;;;;;;;15.80;11.35;;;11.00;99.90;;;;;;5013173;28;20434;-80
2023/01/02 03:21:38;;;;;;;19.15;10.95;;;10.80;99.90;;;;;;5046840;28;20052;-83
2023/01/02 03:24:10;;;;;;;21.33;11.32;;;10.80;99.90;;;;;;5017023;28;20033;-79
2023/01/02 03:26:41;;;;;;;17.42;11.05;;;10.60;99.90;;;;;;5017840;28;20045;-81
2023/01/02 03:29:14;;;;;;;19.75;10.70;;;10.80;99.90;;;;;;5037044;28;20053;-79
2023/01/02 03:31:42;;;;;;;13.82;10.07;;;10.80;99.90;;;;;;5029688;28;20812;-80
2023/01/02 03:34:15;;;;;;;19.60;11.15;;;10.60;99.90;;;;;;5030313;28;21209;-79
2023/01/02 03:36:46;;;;;;;19.55;10.80;;;10.70;99.90;;;;;;5060680;28;20202;-78
2023/01/02 03:39:18;;;;;;;16.15;10.43;;;10.90;99.90;;;;;;5062375;28;20049;-81
2023/01/02 03:42:07;;;;;;;18.08;10.55;;;11.10;99.90;;;;;;5026891;28;20033;-78
2023/01/02 03:44:51;;;;;;;19.50;11.80;;;10.80;99.90;;;;;;5028641;28;20491;-80
2023/01/02 03:47:48;;;;;;;20.83;12.43;;;11.00;99.90;;;;;;5027350;28;20052;-81
2023/01/02 03:50:36;;;;;;;22.65;13.15;;;11.10;99.90;;;;;;5006632;28;20124;-77
2023/01/02 03:53:03;;;;;;;29.50;15.20;;;11.10;99.90;;;;;;5012669;28;20049;-80
2023/01/02 03:55:33;;;;;;;28.48;14.93;;;11.10;99.90;;;;;;5012238;28;20076;-80
2023/01/02 03:58:13;;;;;;;31.20;13.73;;;11.10;99.90;;;;;;5029407;28;20407;-80
2023/01/02 04:00:56;;;;;;;25.30;14.45;;;11.10;99.90;;;;;;5045892;28;20408;-81
2023/01/02 04:03:48;;;;;;;32.13;15.75;;;10.90;99.90;;;;;;5035875;28;20140;-80
2023/01/02 04:06:18;;;;;;;27.42;12.65;;;11.10;99.90;;;;;;5020699;28;20045;-78
2023/01/02 04:08:54;;;;;;;27.52;14.88;;;10.80;99.90;;;;;;5043597;28;20048;-78
2023/01/02 04:11:21;;;;;;;29.17;15.32;;;10.70;99.90;;;;;;5038278;28;20131;-80
2023/01/02 04:14:02;;;;;;;34.65;15.73;;;11.10;99.90;;;;;;5028903;28;20068;-79
2023/01/02 04:16:32;;;;;;;28.60;14.82;;;10.70;99.90;;;;;;5043511;28;20063;-77
2023/01/02 04:19:02;;;;;;;28.10;15.55;;;11.00;99.90;;;;;;5023272;28;20039;-79
2023/01/02 04:21:32;;;;;;;32.60;15.68;;;11.20;99.90;;;;;;5050696;28;20044;-80
2023/01/02 04:24:03;;;;;;;34.85;16.05;;;10.80;99.90;;;;;;5039009;28;20108;-80
2023/01/02 04:26:35;;;;;;;30.05;15.65;;;10.90;99.90;;;;;;5033427;28;20102;-79
2023/01/02 04:29:01;;;;;;;34.53;15.85;;;10.90;99.90;;;;;;5017703;28;20052;-81
2023/01/02 04:31:37;;;;;;;33.05;15.35;;;11.10;99.90;;;;;;5034235;28;20361;-79
2023/01/02 04:34:04;;;;;;;34.83;16.35;;;10.70;99.90;;;;;;5033836;28;20360;-82
2023/01/02 04:36:37;;;;;;;29.58;16.67;;;10.80;99.90;;;;;;5006543;28;20049;-80
2023/01/02 04:39:04;;;;;;;34.83;17.33;;;11.20;99.90;;;;;;5033672;28;20067;-77
2023/01/02 04:41:31;;;;;;;28.05;16.67;;;11.00;99.90;;;;;;5050285;28;20059;-81
2023/01/02 04:43:56;;;;;;;34.92;17.45;;;11.20;99.90;;;;;;5035001;28;20061;-79
2023/01/02 04:46:23;;;;;;;31.80;17.52;;;10.80;99.90;;;;;;5012180;28;20068;-80
2023/01/02 04:48:49;;;;;;;40.35;17.67;;;10.80;99.90;;;;;;5029618;28;20052;-81
2023/01/02 04:51:15;;;;;;;39.20;17.00;;;10.90;99.90;;;;;;5035419;28;20480;-78
2023/01/02 04:53:41;;;;;;;35.28;16.98;;;11.20;99.90;;;;;;5036835;28;20186;-78
2023/01/02 04:56:07;;;;;;;34.20;17.10;;;11.30;99.90;;;;;;5034403;28;20144;-80
2023/01/02 05:02:13;;;;;;;25.67;14.60;;;11.10;99.90;;;;;;5058930;28;20056;-78
2023/01/02 05:04:39;;;;;;;27.05;14.70;;;11.30;99.90;;;;;;5038199;28;20057;-80
2023/01/02 05:07:05;;;;;;;29.25;13.73;;;10.90;99.90;;;;;;5050991;28;20040;-81
2023/01/02 05:09:31;;;;;;;24.27;12.88;;;11.30;99.90;;;;;;5031627;28;20185;-79
2023/01/02 05:11:57;;;;;;;24.50;11.77;;;10.80;99.90;;;;;;5032302;28;20041;-79
2023/01/02 05:14:22;;;;;;;20.80;11.93;;;11.30;99.90;;;;;;5022091;28;20076;-82
2023/01/02 05:16:48;;;;;;;18.63;10.98;;;11.00;99.90;;;;;;5036655;28;20115;-82
2023/01/02 05:19:14;;;;;;;20.98;10.80;;;11.20;99.90;;;;;;5015716;28;20044;-79
2023/01/02 05:24:25;;;;;;;18.27;10.90;;;10.80;99.90;;;;;;5031889;28;20124;-76
2023/01/02 05:26:51;;;;;;;20.20;11.30;;;10.90;99.90;;;;;;5035063;28;20032;-81
2023/01/02 05:29:17;;;;;;;22.92;12.23;;;11.20;99.90;;;;;;5029813;28;20104;-82
2023/01/02 05:31:44;;;;;;;19.35;11.85;;;11.00;99.90;;;;;;5011548;28;20519;-82
2023/01/02 05:34:13;;;;;;;20.38;12.13;;;10.80;99.90;;;;;;5031212;28;20388;-81
2023/01/02 05:36:39;;;;;;;19.40;12.20;;;10.80;99.90;;;;;;5016308;28;20045;-82
2023/01/02 05:39:08;;;;;;;15.23;10.63;;;10.90;99.90;;;;;;5014935;28;20051;-81
2023/01/02 05:41:34;;;;;;;15.85;10.25;;;10.90;99.90;;;;;;5012210;28;20095;-82
2023/01/02 05:44:00;;;;;;;14.65;9.63;;;11.30;99.90;;;;;;5035923;28;20041;-80
2023/01/02 05:46:25;;;;;;;14.82;9.73;;;10.90;99.90;;;;;;5032807;28;20081;-79
2023/01/02 05:48:51;;;;;;;17.98;10.50;;;11.10;99.90;;;;;;5048600;28;20037;-80
2023/01/02 05:51:17;;;;;;;15.82;10.23;;;11.20;99.90;;;;;;5027288;28;20114;-79
2023/01/02 05:53:43;;;;;;;17.50;10.45;;;11.10;99.90;;;;;;5004626;28;20088;-79
2023/01/02 05:56:14;;;;;;;16.67;10.25;;;11.20;99.90;;;;;;5031463;28;20113;-78
2023/01/02 05:58:43;;;;;;;18.33;11.02;;;11.20;99.90;;;;;;5048644;28;20049;-80
2023/01/02 06:01:20;;;;;;;15.25;9.25;;;11.20;99.90;;;;;;5025802;28;20049;-82
2023/01/02 06:03:51;;;;;;;12.82;8.90;;;11.20;99.90;;;;;;5045503;28;20048;-80
2023/01/02 06:06:18;;;;;;;13.00;9.05;;;11.20;99.90;;;;;;5064456;28;20037;-81
2023/01/02 06:08:44;;;;;;;14.80;8.93;;;11.10;99.90;;;;;;5022617;28;20045;-79
2023/01/02 06:11:09;;;;;;;18.20;10.07;;;10.80;99.90;;;;;;5033803;28;20045;-82
2023/01/02 06:13:37;;;;;;;16.85;9.30;;;10.80;99.90;;;;;;5036275;28;20491;-81
2023/01/02 06:16:04;;;;;;;13.50;9.10;;;10.80;99.90;;;;;;5070182;28;20444;-81
2023/01/02 06:18:31;;;;;;;12.27;8.23;;;10.80;99.90;;;;;;5060696;28;20070;-80
2023/01/02 06:21:06;;;;;;;14.73;8.68;;;11.10;99.90;;;;;;5052087;28;20049;-82
2023/01/02 06:23:33;;;;;;;11.57;7.97;;;11.10;99.90;;;;;;5035648;28;20067;-80
2023/01/02 06:26:06;;;;;;;10.48;7.13;;;10.90;99.90;;;;;;5035459;28;20417;-82
2023/01/02 06:32:12;;;;;;;8.07;6.13;;;11.10;99.90;;;;;;5056781;28;20079;-78
2023/01/02 06:34:38;;;;;;;10.52;5.75;;;11.20;99.90;;;;;;5055980;28;20040;-81
2023/01/02 06:37:04;;;;;;;7.20;5.60;;;11.30;99.90;;;;;;5049754;28;20039;-80
2023/01/02 06:39:29;;;;;;;11.15;6.30;;;10.90;99.90;;;;;;5047961;28;20372;-79
2023/01/02 06:41:55;;;;;;;8.57;6.20;;;11.10;99.90;;;;;;5031750;28;20083;-81
2023/01/02 06:44:21;;;;;;;10.45;6.28;;;10.90;99.90;;;;;;5016433;28;20448;-79
2023/01/02 06:46:46;;;;;;;9.38;6.47;;;10.80;99.90;;;;;;5026193;28;20164;-80
2023/01/02 06:49:12;;;;;;;7.97;5.82;;;11.20;99.90;;;;;;5031395;28;20095;-78
2023/01/02 06:51:38;;;;;;;8.65;7.15;;;11.00;99.90;;;;;;5067304;28;20157;-82
2023/01/02 06:54:03;;;;;;;9.57;6.85;;;11.30;99.90;;;;;;5028140;28;20059;-79
2023/01/02 06:56:29;;;;;;;8.90;6.03;;;10.80;99.90;;;;;;5058949;28;20053;-81
2023/01/02 06:58:54;;;;;;;12.57;6.78;;;11.00;99.90;;;;;;5063730;28;20045;-78
2023/01/02 07:01:21;;;;;;;9.25;7.75;;;10.60;99.90;;;;;;5063641;28;20477;-79
2023/01/02 07:03:47;;;;;;;11.45;8.40;;;10.80;99.90;;;;;;5062241;28;20542;-79
2023/01/02 07:06:18;;;;;;;12.50;8.60;;;11.00;99.90;;;;;;5060138;28;20044;-80
2023/01/02 07:08:44;;;;;;;10.63;7.53;;;10.90;99.90;;;;;;5011017;28;20065;-81
2023/01/02 07:11:11;;;;;;;10.00;6.75;;;10.40;99.90;;;;;;5062165;28;22013;-78
2023/01/02 07:13:38;;;;;;;10.68;6.72;;;10.30;99.90;;;;;;5023708;28;20135;-81
2023/01/02 07:16:06;;;;;;;12.18;5.93;;;9.70;99.90;;;;;;5028421;28;20049;-81
2023/01/02 07:18:34;;;;;;;14.65;6.68;;;9.60;99.90;;;;;;5009710;28;20318;-81
2023/01/02 07:20:59;;;;;;;12.48;5.97;;;9.30;99.90;;;;;;5055214;28;20052;-79
2023/01/02 07:23:25;;;;;;;9.80;4.68;;;9.40;99.90;;;;;;5013115;28;20037;-79
2023/01/02 07:25:59;;;;;;;6.65;3.65;;;9.30;99.90;;;;;;5013006;28;20096;-79
2023/01/02 07:28:26;;;;;;;3.70;1.70;;;8.90;99.90;;;;;;5046850;28;20040;-77
2023/01/02 07:30:56;;;;;;;4.68;1.10;;;9.10;99.90;;;;;;5042822;28;20298;-79
2023/01/02 07:33:22;;;;;;;1.80;0.88;;;9.10;99.90;;;;;;5047694;28;20049;-82
2023/01/02 07:35:47;;;;;;;5.07;1.10;;;8.70;99.90;;;;;;5030762;28;20041;-78
2023/01/02 07:38:13;;;;;;;2.78;1.58;;;8.60;99.90;;;;;;5029155;28;20046;-78
2023/01/02 07:40:39;;;;;;;5.55;1.25;;;8.60;99.90;;;;;;5045680;28;20095;-80
2023/01/02 07:43:04;;;;;;;4.22;2.10;;;9.00;99.90;;;;;;5031287;28;20037;-79
2023/01/02 07:45:33;;;;;;;8.27;3.17;;;8.80;99.90;;;;;;5064565;28;20048;-77
2023/01/02 07:48:00;;;;;;;7.63;3.15;;;8.60;99.90;;;;;;5015139;28;20132;-82
2023/01/02 07:50:25;;;;;;;4.60;2.83;;;8.40;99.90;;;;;;5046579;28;20144;-78
2023/01/02 07:52:51;;;;;;;5.47;1.88;;;8.70;99.90;;;;;;5019866;28;20128;-79
2023/01/02 07:55:17;;;;;;;3.75;1.30;;;8.30;99.90;;;;;;5022571;28;20398;-81
2023/01/02 08:01:23;;;;;;;2.58;1.08;;;8.60;99.90;;;;;;5022941;28;20119;-79
2023/01/02 08:03:49;;;;;;;5.75;1.60;;;8.50;99.90;;;;;;5046153;28;20056;-78
2023/01/02 08:06:16;;;;;;;3.25;1.10;;;8.60;99.90;;;;;;5003952;28;20112;-78
2023/01/02 08:08:42;;;;;;;3.63;1.25;;;8.30;99.90;;;;;;4996493;28;20579;-84
2023/01/02 08:11:14;;;;;;;8.30;1.70;;;8.30;99.90;;;;;;5026950;28;20204;-82
2023/01/02 08:13:40;;;;;;;4.97;1.63;;;8.70;99.90;;;;;;5005284;28;20140;-79
2023/01/02 08:16:16;;;;;;;5.38;1.40;;;8.50;99.90;;;;;;5020148;28;20160;-81
2023/01/02 08:18:42;;;;;;;6.93;1.42;;;8.30;99.90;;;;;;5039427;28;20348;-83
2023/01/02 08:21:08;;;;;;;6.22;1.65;;;8.60;99.90;;;;;;5007170;28;20034;-82
2023/01/02 08:23:35;;;;;;;6.72;1.48;;;8.30;99.90;;;;;;5008354;28;20095;-83
2023/01/02 08:26:05;;;;;;;6.30;1.70;;;8.60;99.90;;;;;;5005298;28;20087;-83
2023/01/02 08:28:32;;;;;;;8.20;1.50;;;8.40;99.90;;;;;;5022388;28;20064;-79
2023/01/02 08:30:59;;;;;;;5.43;1.35;;;8.60;99.90;;;;;;4983770;28;20050;-82
2023/01/02 08:33:25;;;;;;;11.48;1.80;;;8.50;99.90;;;;;;5030629;28;20081;-80
2023/01/02 08:35:51;;;;;;;6.07;1.60;;;8.80;99.90;;;;;;4984884;28;20084;-79
2023/01/02 08:38:17;;;;;;;10.18;1.73;;;8.80;99.90;;;;;;5022330;28;20132;-83
2023/01/02 08:40:43;;;;;;;4.80;1.55;;;8.70;99.90;;;;;;5004452;28;20061;-79
2023/01/02 08:43:36;;;;;;;8.75;2.00;;;8.40;99.90;;;;;;4989148;28;20049;-82
2023/01/02 08:46:06;;;;;;;5.15;1.70;;;8.40;99.90;;;;;;5004411;28;20030;-81
2023/01/02 08:48:33;;;;;;;6.25;1.92;;;8.80;99.90;;;;;;5002007;28;20058;-81
2023/01/02 08:50:58;;;;;;;6.25;1.98;;;8.50;99.90;;;;;;5031235;28;20065;-81
2023/01/02 08:53:24;;;;;;;6.63;2.15;;;8.80;99.90;;;;;;5023723;28;20049;-79
2023/01/02 08:55:50;;;;;;;3.80;1.98;;;8.50;99.90;;;;;;5026866;28;20059;-80
2023/01/02 08:58:40;;;;;;;5.03;2.22;;;8.80;99.90;;;;;;5047081;28;20135;-80
2023/01/02 09:01:06;;;;;;;6.10;2.30;;;8.70;99.90;;;;;;5046276;28;20041;-81
2023/01/02 09:03:31;;;;;;;7.13;2.45;;;8.80;99.90;;;;;;5050834;28;20522;-81
2023/01/02 09:05:57;;;;;;;5.47;2.03;;;8.50;99.90;;;;;;5065080;28;20052;-82
2023/01/02 09:08:23;;;;;;;5.10;2.00;;;8.60;99.90;;;;;;5055162;28;20041;-79
2023/01/02 09:10:50;;;;;;;7.40;2.00;;;8.60;99.90;;;;;;5018341;28;20416;-81
2023/01/02 09:13:15;;;;;;;5.07;1.48;;;8.70;99.90;;;;;;5033492;28;20118;-81
2023/01/02 09:15:44;;;;;;;3.65;1.20;;;8.80;99.90;;;;;;5049238;28;20064;-79
2023/01/02 09:18:10;;;;;;;4.03;1.40;;;8.90;99.90;;;;;;5031684;28;20464;-81
2023/01/02 09:20:39;;;;;;;5.35;1.60;;;8.70;99.90;;;;;;5034200;28;20057;-82
2023/01/02 09:23:06;;;;;;;5.18;1.75;;;8.80;99.90;;;;;;5058237;28;20103;-82
2023/01/02 09:25:32;;;;;;;2.92;1.23;;;8.80;99.90;;;;;;5049002;28;20136;-81
2023/01/02 09:27:57;;;;;;;7.10;1.67;;;8.80;99.90;;;;;;5048026;28;20052;-81
2023/01/02 09:31:01;;;;;;;5.65;2.10;;;8.50;99.90;;;;;;5030092;28;20045;-81
2023/01/02 09:33:27;;;;;;;5.03;1.92;;;8.60;99.90;;;;;;5048356;28;20106;-79
2023/01/02 09:35:52;;;;;;;7.35;2.55;;;8.60;99.90;;;;;;5022132;28;20045;-79
2023/01/02 09:38:18;;;;;;;4.97;2.20;;;8.50;99.90;;;;;;5021791;28;20033;-81
2023/01/02 09:40:51;;;;;;;6.35;2.45;;;8.50;99.90;;;;;;5015090;28;20048;-80
2023/01/02 09:43:38;;;;;;;3.58;2.00;;;8.70;99.90;;;;;;5013843;28;20123;-81
2023/01/02 09:46:06;;;;;;;6.75;2.53;;;8.60;99.90;;;;;;5051979;28;20123;-81
2023/01/02 09:48:35;;;;;;;6.25;2.30;;;9.00;99.90;;;;;;5036283;28;20037;-82
2023/01/02 09:51:04;;;;;;;5.63;2.35;;;8.90;99.90;;;;;;5032484;28;20488;-82
2023/01/02 09:53:33;;;;;;;6.53;2.50;;;8.60;99.90;;;;;;5010858;28;20045;-82
2023/01/02 09:56:19;;;;;;;4.50;2.53;;;8.70;99.90;;;;;;5022359;28;20380;-82
2023/01/02 09:59:16;;;;;;;7.68;2.70;;;8.70;99.90;;;;;;5017017;28;20467;-81
2023/01/02 10:01:50;;;;;;;7.20;2.78;;;9.00;99.90;;;;;;5011441;28;20044;-81
2023/01/02 10:04:32;;;;;;;7.35;2.60;;;8.70;99.90;;;;;;5033898;28;20049;-81
2023/01/02 10:07:09;;;;;;;6.07;2.75;;;8.60;99.90;;;;;;5022999;28;20049;-82
2023/01/02 10:09:56;;;;;;;8.40;2.63;;;8.90;99.90;;;;;;5000718;28;20046;-82
2023/01/02 10:12:33;;;;;;;5.47;3.13;;;8.60;99.90;;;;;;5013188;28;20037;-80
2023/01/02 10:15:05;;;;;;;9.38;3.13;;;9.00;99.90;;;;;;5037342;28;20476;-81
2023/01/02 10:17:48;;;;;;;7.93;3.20;;;8.80;99.90;;;;;;5019384;28;20037;-82
2023/01/02 10:20:13;;;;;;;8.00;3.45;;;8.60;99.90;;;;;;5000110;28;20054;-80
2023/01/02 10:22:57;;;;;;;8.20;3.38;;;8.60;99.90;;;;;;5009006;28;20503;-83
2023/01/02 10:25:52;;;;;;;9.48;3.08;;;8.90;99.90;;;;;;5012457;28;20461;-83
2023/01/02 10:32:17;;;;;;;8.55;3.03;;;8.90;99.90;;;;;;4880330;29;20075;-82
2023/01/02 10:35:12;;;;;;;7.17;2.70;;;8.50;99.90;;;;;;4878040;29;20139;-82
2023/01/02 10:37:38;;;;;;;;;;;8.50;99.90;;;;;;4867131;29;20309;-82
2023/01/02 10:40:04;;;;;;;7.57;3.38;;;8.90;99.90;;;;;;4858834;29;20352;-82
2023/01/02 10:42:32;;;;;;;7.32;3.03;;;8.60;99.90;;;;;;4870571;29;20064;-82
2023/01/02 10:44:58;;;;;;;5.80;3.00;;;8.70;99.90;;;;;;4861216;29;20045;-79
2023/01/02 10:47:37;;;;;;;8.05;2.47;;;8.80;99.90;;;;;;4856308;29;20128;-80
2023/01/02 10:50:13;;;;;;;6.95;1.90;;;9.00;99.90;;;;;;4863307;29;20056;-84
2023/01/02 10:52:51;;;;;;;5.00;1.90;;;8.60;99.90;;;;;;4870290;29;20410;-84
2023/01/02 10:55:40;;;;;;;4.70;1.55;;;8.90;99.90;;;;;;4869574;29;20393;-85
2023/01/02 10:58:27;;;;;;;4.00;1.67;;;8.90;99.90;;;;;;4859318;29;20311;-84
2023/01/02 11:01:17;;;;;;;7.80;1.80;;;8.90;99.90;;;;;;4875735;29;20448;-84
2023/01/02 11:03:45;;;;;;;7.57;2.15;;;8.60;99.90;;;;;;4883114;29;20052;-82
2023/01/02 11:06:30;;;;;;;3.30;1.38;;;8.80;99.90;;;;;;4938794;28;20099;-82
2023/01/02 11:09:18;;;;;;;4.55;2.20;;;8.70;99.90;;;;;;4996503;28;20052;-82
2023/01/02 11:11:52;;;;;;;5.97;2.22;;;8.90;99.90;;;;;;5010800;28;20069;-82
2023/01/02 11:17:49;;;;;;;8.07;2.50;;;9.20;99.90;;;;;;5028630;28;20049;-83
2023/01/02 11:20:25;;;;;;;5.63;2.15;;;8.90;99.90;;;;;;5027215;28;20037;-80
2023/01/02 11:22:53;;;;;;;5.88;2.30;;;9.20;99.90;;;;;;5029174;28;20037;-81
2023/01/02 11:25:25;;;;;;;5.93;2.10;;;9.40;99.90;;;;;;5013876;28;20045;-84
2023/01/02 11:27:55;;;;;;;10.15;2.40;;;8.90;99.90;;;;;;5009100;28;20034;-83
2023/01/02 11:30:30;;;;;;;9.50;2.15;;;9.00;99.90;;;;;;5013327;28;21129;-82
2023/01/02 11:33:04;;;;;;;;;;;9.30;99.90;;;;;;4999837;28;20045;-83
2023/01/02 11:35:38;;;;;;;10.43;2.15;;;9.30;99.90;;;;;;5010190;28;19917;-83
2023/01/02 11:38:11;;;;;;;7.95;2.33;;;9.30;99.90;;;;;;5006711;28;20056;-83
2023/01/02 11:40:36;;;;;;;8.98;2.42;;;9.30;99.90;;;;;;5005839;28;20037;-83
2023/01/02 11:45:51;;;;;;;8.18;2.00;;;9.00;99.90;;;;;;5011475;28;20118;-84
2023/01/02 11:48:21;;;;;;;12.57;2.30;;;9.30;99.90;;;;;;4996236;28;20029;-85
2023/01/02 11:50:48;;;;;;;10.57;1.90;;;9.40;99.90;;;;;;5001619;28;20329;-84
2023/01/02 11:53:32;;;;;;;8.55;1.95;;;9.20;99.90;;;;;;5003618;28;21833;-81
2023/01/02 11:56:00;;;;;;;7.80;1.80;;;9.40;99.90;;;;;;5035367;28;20142;-83
2023/01/02 11:58:33;;;;;;;7.40;2.00;;;9.40;99.90;;;;;;5030272;28;20060;-80
2023/01/02 12:01:12;;;;;;;9.43;2.13;;;9.30;99.90;;;;;;5054920;28;20053;-81
2023/01/02 12:03:38;;;;;;;11.55;1.95;;;9.40;99.90;;;;;;5044941;28;20037;-82
2023/01/02 12:06:15;;;;;;;7.35;1.88;;;9.10;99.90;;;;;;5033513;28;20603;-81
2023/01/02 12:09:13;;;;;;;11.07;2.25;;;9.00;99.90;;;;;;5062236;28;20484;-81
2023/01/02 12:12:00;;;;;;;6.78;1.70;;;9.30;99.90;;;;;;5018492;28;20048;-83
2023/01/02 12:14:38;;;;;;;12.98;1.73;;;9.20;99.90;;;;;;5036255;28;20127;-81
2023/01/02 12:17:11;;;;;;;15.20;2.17;;;9.30;99.90;;;;;;5050658;28;20040;-83
2023/01/02 12:19:50;;;;;;;10.00;1.73;;;8.90;99.90;;;;;;5061547;28;20052;-81
2023/01/02 12:22:35;;;;;;;7.00;1.52;;;9.10;99.90;;;;;;5066433;28;20040;-84
2023/01/02 12:25:41;;;;;;;12.10;2.15;;;8.90;99.90;;;;;;5038807;28;20072;-83
2023/01/02 12:28:22;;;;;;;10.52;1.90;;;9.20;99.90;;;;;;5031718;28;20117;-83
2023/01/02 12:34:28;;;;;;;19.95;2.20;;;9.00;99.90;;;;;;5061933;28;20028;-82
2023/01/02 12:37:13;;;;;;;10.57;2.03;;;9.20;99.90;;;;;;5069856;28;20040;-82
2023/01/02 12:40:06;;;;;;;11.45;1.60;;;9.20;99.90;;;;;;5020430;28;20045;-81
2023/01/02 12:42:41;;;;;;;9.98;1.80;;;9.10;99.90;;;;;;5020593;28;20094;-81
2023/01/02 12:45:45;;;;;;;13.43;2.13;;;9.10;99.90;;;;;;5033828;28;20056;-81
2023/01/02 12:48:43;;;;;;;12.55;2.35;;;9.20;99.90;;;;;;5064756;28;20041;-84
2023/01/02 12:51:16;;;;;;;13.13;2.30;;;9.00;99.90;;;;;;4974678;28;20560;-80
2023/01/02 12:53:59;;;;;;;12.52;2.30;;;9.00;99.90;;;;;;4939455;28;20499;-82
2023/01/02 12:56:42;;;;;;;11.38;2.15;;;9.00;99.90;;;;;;4991638;28;20054;-82
2023/01/02 12:59:36;;;;;;;12.57;2.55;;;9.30;99.90;;;;;;4985550;28;20034;-83
2023/01/02 13:02:20;;;;;;;12.18;2.05;;;9.20;99.90;;;;;;4897594;29;20099;-83
2023/01/02 13:04:55;;;;;;;13.35;2.30;;;9.10;99.90;;;;;;4891703;29;20506;-81
2023/01/02 13:07:29;;;;;;;10.75;1.98;;;9.30;99.90;;;;;;4898429;29;20168;-79
2023/01/02 13:09:57;;;;;;;11.80;2.28;;;9.00;99.90;;;;;;4913061;29;20048;-83
2023/01/02 13:12:26;;;;;;;17.45;2.42;;;9.00;99.90;;;;;;4894874;29;20603;-80
2023/01/02 13:14:57;;;;;;;13.07;1.92;;;8.90;99.90;;;;;;4894460;29;20074;-82
2023/01/02 13:17:50;;;;;;;14.70;2.20;;;9.10;99.90;;;;;;4894498;29;20044;-82
2023/01/02 13:20:21;;;;;;;17.30;2.92;;;9.20;99.90;;;;;;4903181;29;20455;-81
2023/01/02 13:23:06;;;;;;;14.57;2.22;;;9.20;99.90;;;;;;4898916;29;20062;-80
2023/01/02 13:25:35;;;;;;;20.80;2.50;;;9.30;99.90;;;;;;4898214;29;20104;-80
2023/01/02 13:28:06;;;;;;;22.65;2.95;;;9.00;99.90;;;;;;4940015;28;20118;-80
2023/01/02 13:30:39;;;;;;;18.60;2.67;;;9.10;99.90;;;;;;4920197;28;20047;-81
2023/01/02 13:33:20;;;;;;;16.27;2.72;;;9.30;99.90;;;;;;4956833;28;20051;-79
2023/01/02 13:35:46;;;;;;;19.83;2.60;;;9.20;99.90;;;;;;4919576;29;20130;-80
2023/01/02 13:38:15;;;;;;;16.90;2.72;;;9.10;99.90;;;;;;4951326;28;20049;-80